sensor_id;sensor_type;location;lat;lon;timestamp;temperature;humidity
39881;DHT22;25554;44.954;10.068;2022-08-21T00:01:05;22.10;99.90
39881;DHT22;25554;44.954;10.068;2022-08-21T00:03:32;22.00;99.90
39881;DHT22;25554;44.954;10.068;2022-08-21T00:05:58;22.00;99.90
39881;DHT22;25554;44.954;10.068;2022-08-21T00:08:25;21.90;99.90
39881;DHT22;25554;44.954;10.068;2022-08-21T00:10:51;21.80;99.90
39881;DHT22;25554;44.954;10.068;2022-08-21T00:13:19;21.80;99.90
39881;DHT22;25554;44.954;10.068;2022-08-21T00:15:47;21.70;99.90
39881;DHT22;25554;44.954;10.068;2022-08-21T00:18:14;21.70;99.90
39881;DHT22;25554;44.954;10.068;2022-08-21T00:20:43;21.60;99.90
39881;DHT22;25554;44.954;10.068;2022-08-21T00:23:10;21.60;99.90
39881;DHT22;25554;44.954;10.068;2022-08-21T00:25:37;21.60;99.90
39881;DHT22;25554;44.954;10.068;2022-08-21T00:28:04;21.60;99.90
39881;DHT22;25554;44.954;10.068;2022-08-21T00:30:33;21.50;99.90
39881;DHT22;25554;44.954;10.068;2022-08-21T00:33:00;21.50;99.90
39881;DHT22;25554;44.954;10.068;2022-08-21T00:35:30;21.50;99.90
39881;DHT22;25554;44.954;10.068;2022-08-21T00:37:57;21.50;99.90
39881;DHT22;25554;44.954;10.068;2022-08-21T00:40:26;21.50;99.90
39881;DHT22;25554;44.954;10.068;2022-08-21T00:42:53;21.50;99.90
39881;DHT22;25554;44.954;10.068;2022-08-21T00:45:21;21.50;99.90
39881;DHT22;25554;44.954;10.068;2022-08-21T00:47:48;21.50;99.90
39881;DHT22;25554;44.954;10.068;2022-08-21T00:50:17;21.50;99.90
39881;DHT22;25554;44.954;10.068;2022-08-21T00:52:51;21.50;99.90
39881;DHT22;25554;44.954;10.068;2022-08-21T00:55:19;21.50;99.90
39881;DHT22;25554;44.954;10.068;2022-08-21T00:57:53;21.40;99.90
39881;DHT22;25554;44.954;10.068;2022-08-21T01:00:28;21.30;99.90
39881;DHT22;25554;44.954;10.068;2022-08-21T01:02:56;21.20;99.90
39881;DHT22;25554;44.954;10.068;2022-08-21T01:05:23;21.20;99.90
39881;DHT22;25554;44.954;10.068;2022-08-21T01:07:50;21.20;99.90
39881;DHT22;25554;44.954;10.068;2022-08-21T01:10:17;21.20;99.90
39881;DHT22;25554;44.954;10.068;2022-08-21T01:12:44;21.20;99.90
39881;DHT22;25554;44.954;10.068;2022-08-21T01:15:11;21.20;99.90
39881;DHT22;25554;44.954;10.068;2022-08-21T01:17:40;21.20;99.90
39881;DHT22;25554;44.954;10.068;2022-08-21T01:20:10;21.20;99.90
39881;DHT22;25554;44.954;10.068;2022-08-21T01:22:37;21.20;99.90
39881;DHT22;25554;44.954;10.068;2022-08-21T01:25:05;21.10;99.90
39881;DHT22;25554;44.954;10.068;2022-08-21T01:27:33;21.10;99.90
39881;DHT22;25554;44.954;10.068;2022-08-21T01:30:08;21.10;99.90
39881;DHT22;25554;44.954;10.068;2022-08-21T01:32:35;21.00;99.90
39881;DHT22;25554;44.954;10.068;2022-08-21T01:35:03;20.90;99.90
39881;DHT22;25554;44.954;10.068;2022-08-21T01:37:30;20.80;99.90
39881;DHT22;25554;44.954;10.068;2022-08-21T01:39:56;20.80;99.90
39881;DHT22;25554;44.954;10.068;2022-08-21T01:42:22;20.80;99.90
39881;DHT22;25554;44.954;10.068;2022-08-21T01:59:04;20.60;99.90
39881;DHT22;25554;44.954;10.068;2022-08-21T02:26:16;20.30;99.90
39881;DHT22;25554;44.954;10.068;2022-08-21T02:33:46;20.20;99.90
39881;DHT22;25554;44.954;10.068;2022-08-21T02:41:46;20.10;99.90
39881;DHT22;25554;44.954;10.068;2022-08-21T02:49:58;20.10;99.90
39881;DHT22;25554;44.954;10.068;2022-08-21T05:27:25;19.70;99.90
39881;DHT22;25554;44.954;10.068;2022-08-21T12:19:35;31.10;92.10
39881;DHT22;25554;44.954;10.068;2022-08-21T12:45:00;32.10;91.30
39881;DHT22;25554;44.954;10.068;2022-08-21T12:47:36;32.00;91.50
39881;DHT22;25554;44.954;10.068;2022-08-21T12:50:13;32.10;91.50
39881;DHT22;25554;44.954;10.068;2022-08-21T12:52:54;32.20;91.00
39881;DHT22;25554;44.954;10.068;2022-08-21T12:55:28;32.20;91.00
39881;DHT22;25554;44.954;10.068;2022-08-21T12:57:54;32.10;91.20
39881;DHT22;25554;44.954;10.068;2022-08-21T13:00:23;31.90;91.40
39881;DHT22;25554;44.954;10.068;2022-08-21T13:02:52;32.10;91.80
39881;DHT22;25554;44.954;10.068;2022-08-21T13:07:54;32.50;90.90
39881;DHT22;25554;44.954;10.068;2022-08-21T13:10:27;32.60;90.90
39881;DHT22;25554;44.954;10.068;2022-08-21T13:15:29;32.80;90.50
39881;DHT22;25554;44.954;10.068;2022-08-21T13:17:57;32.90;90.90
39881;DHT22;25554;44.954;10.068;2022-08-21T13:20:39;32.90;90.30
39881;DHT22;25554;44.954;10.068;2022-08-21T13:23:24;32.80;90.20
39881;DHT22;25554;44.954;10.068;2022-08-21T13:25:50;32.80;90.40
39881;DHT22;25554;44.954;10.068;2022-08-21T13:30:52;32.60;90.70
39881;DHT22;25554;44.954;10.068;2022-08-21T13:33:24;32.90;90.60
39881;DHT22;25554;44.954;10.068;2022-08-21T13:36:11;33.00;89.50
39881;DHT22;25554;44.954;10.068;2022-08-21T13:38:42;33.10;89.40
39881;DHT22;25554;44.954;10.068;2022-08-21T13:43:55;32.90;89.30
39881;DHT22;25554;44.954;10.068;2022-08-21T13:46:24;33.00;88.40
39881;DHT22;25554;44.954;10.068;2022-08-21T13:48:53;32.80;87.70
39881;DHT22;25554;44.954;10.068;2022-08-21T13:53:50;32.70;88.30
39881;DHT22;25554;44.954;10.068;2022-08-21T13:56:28;32.80;88.40
39881;DHT22;25554;44.954;10.068;2022-08-21T13:58:56;32.80;90.00
39881;DHT22;25554;44.954;10.068;2022-08-21T14:01:31;33.00;89.10
39881;DHT22;25554;44.954;10.068;2022-08-21T14:04:18;33.00;87.30
39881;DHT22;25554;44.954;10.068;2022-08-21T14:06:46;32.70;86.80
39881;DHT22;25554;44.954;10.068;2022-08-21T14:09:34;32.70;86.90
39881;DHT22;25554;44.954;10.068;2022-08-21T14:12:10;32.90;87.40
39881;DHT22;25554;44.954;10.068;2022-08-21T14:14:37;32.90;87.90
39881;DHT22;25554;44.954;10.068;2022-08-21T14:17:16;33.00;86.60
39881;DHT22;25554;44.954;10.068;2022-08-21T14:19:52;33.00;85.90
39881;DHT22;25554;44.954;10.068;2022-08-21T14:27:33;33.20;85.40
39881;DHT22;25554;44.954;10.068;2022-08-21T14:30:16;33.10;84.90
39881;DHT22;25554;44.954;10.068;2022-08-21T14:37:37;33.20;85.50
39881;DHT22;25554;44.954;10.068;2022-08-21T14:40:04;33.30;85.80
39881;DHT22;25554;44.954;10.068;2022-08-21T14:45:02;33.80;84.90
39881;DHT22;25554;44.954;10.068;2022-08-21T14:54:49;33.50;89.90
39881;DHT22;25554;44.954;10.068;2022-08-21T15:02:09;34.10;83.30
39881;DHT22;25554;44.954;10.068;2022-08-21T15:07:03;33.90;82.70
39881;DHT22;25554;44.954;10.068;2022-08-21T15:11:58;33.70;82.20
39881;DHT22;25554;44.954;10.068;2022-08-21T15:14:31;33.80;82.50
39881;DHT22;25554;44.954;10.068;2022-08-21T15:16:58;33.90;83.30
39881;DHT22;25554;44.954;10.068;2022-08-21T15:19:25;33.90;83.60
39881;DHT22;25554;44.954;10.068;2022-08-21T15:21:52;34.10;85.60
39881;DHT22;25554;44.954;10.068;2022-08-21T15:32:03;33.70;82.90
39881;DHT22;25554;44.954;10.068;2022-08-21T15:37:07;33.90;83.50
39881;DHT22;25554;44.954;10.068;2022-08-21T15:46:58;34.10;81.10
39881;DHT22;25554;44.954;10.068;2022-08-21T15:56:48;34.20;78.90
39881;DHT22;25554;44.954;10.068;2022-08-21T15:59:19;34.20;79.00
39881;DHT22;25554;44.954;10.068;2022-08-21T16:01:50;34.10;79.20
39881;DHT22;25554;44.954;10.068;2022-08-21T16:04:26;34.00;78.80
39881;DHT22;25554;44.954;10.068;2022-08-21T16:11:45;32.70;78.70
39881;DHT22;25554;44.954;10.068;2022-08-21T16:14:14;33.60;78.90
39881;DHT22;25554;44.954;10.068;2022-08-21T16:19:10;33.70;79.40
39881;DHT22;25554;44.954;10.068;2022-08-21T16:28:58;33.70;78.40
39881;DHT22;25554;44.954;10.068;2022-08-21T16:33:54;33.60;79.20
39881;DHT22;25554;44.954;10.068;2022-08-21T16:38:52;33.70;79.00
39881;DHT22;25554;44.954;10.068;2022-08-21T16:41:21;33.90;78.00
39881;DHT22;25554;44.954;10.068;2022-08-21T16:43:49;33.30;77.60
39881;DHT22;25554;44.954;10.068;2022-08-21T16:46:17;33.50;79.40
39881;DHT22;25554;44.954;10.068;2022-08-21T16:51:14;33.40;81.50
39881;DHT22;25554;44.954;10.068;2022-08-21T16:53:41;33.40;80.10
39881;DHT22;25554;44.954;10.068;2022-08-21T16:56:10;33.40;80.00
39881;DHT22;25554;44.954;10.068;2022-08-21T16:58:40;33.30;80.90
39881;DHT22;25554;44.954;10.068;2022-08-21T17:01:11;33.20;81.40
39881;DHT22;25554;44.954;10.068;2022-08-21T17:03:41;33.10;81.10
39881;DHT22;25554;44.954;10.068;2022-08-21T17:06:08;33.10;82.10
39881;DHT22;25554;44.954;10.068;2022-08-21T17:11:03;33.00;82.30
39881;DHT22;25554;44.954;10.068;2022-08-21T17:18:24;32.60;82.90
39881;DHT22;25554;44.954;10.068;2022-08-21T17:25:47;32.40;85.10
39881;DHT22;25554;44.954;10.068;2022-08-21T17:28:18;32.30;86.60
39881;DHT22;25554;44.954;10.068;2022-08-21T17:33:17;31.90;87.80
39881;DHT22;25554;44.954;10.068;2022-08-21T17:40:38;31.30;90.00
39881;DHT22;25554;44.954;10.068;2022-08-21T17:43:07;31.10;90.10
39881;DHT22;25554;44.954;10.068;2022-08-21T17:57:49;30.00;91.90
39881;DHT22;25554;44.954;10.068;2022-08-21T18:00:18;29.80;92.50
39881;DHT22;25554;44.954;10.068;2022-08-21T18:02:46;29.70;92.90
39881;DHT22;25554;44.954;10.068;2022-08-21T18:05:13;29.50;92.60
39881;DHT22;25554;44.954;10.068;2022-08-21T18:07:40;29.50;92.40
39881;DHT22;25554;44.954;10.068;2022-08-21T18:10:10;29.40;92.90
39881;DHT22;25554;44.954;10.068;2022-08-21T18:12:40;29.30;91.30
39881;DHT22;25554;44.954;10.068;2022-08-21T18:15:07;29.30;91.90
39881;DHT22;25554;44.954;10.068;2022-08-21T18:20:04;29.10;93.70
39881;DHT22;25554;44.954;10.068;2022-08-21T18:29:54;28.40;94.50
39881;DHT22;25554;44.954;10.068;2022-08-21T18:32:23;28.30;94.70
39881;DHT22;25554;44.954;10.068;2022-08-21T18:42:14;28.00;95.30
39881;DHT22;25554;44.954;10.068;2022-08-21T18:44:47;27.70;95.30
39881;DHT22;25554;44.954;10.068;2022-08-21T18:47:26;27.80;94.90
39881;DHT22;25554;44.954;10.068;2022-08-21T19:29:07;26.70;96.60
39881;DHT22;25554;44.954;10.068;2022-08-21T19:31:39;26.60;96.90
39881;DHT22;25554;44.954;10.068;2022-08-21T19:34:19;26.60;97.10
39881;DHT22;25554;44.954;10.068;2022-08-21T19:39:15;26.40;97.70
39881;DHT22;25554;44.954;10.068;2022-08-21T19:41:45;26.30;98.40
39881;DHT22;25554;44.954;10.068;2022-08-21T19:44:18;26.00;99.10
39881;DHT22;25554;44.954;10.068;2022-08-21T19:46:47;26.10;99.60
39881;DHT22;25554;44.954;10.068;2022-08-21T19:49:17;26.00;99.90
39881;DHT22;25554;44.954;10.068;2022-08-21T19:54:17;25.90;99.90
39881;DHT22;25554;44.954;10.068;2022-08-21T19:59:15;25.90;99.90
39881;DHT22;25554;44.954;10.068;2022-08-21T20:09:04;25.60;99.90
39881;DHT22;25554;44.954;10.068;2022-08-21T20:11:37;25.80;99.90
39881;DHT22;25554;44.954;10.068;2022-08-21T20:14:07;25.70;99.90
39881;DHT22;25554;44.954;10.068;2022-08-21T20:41:04;25.40;99.90
39881;DHT22;25554;44.954;10.068;2022-08-21T20:43:36;25.20;99.90
39881;DHT22;25554;44.954;10.068;2022-08-21T20:46:03;25.30;99.90
39881;DHT22;25554;44.954;10.068;2022-08-21T20:48:33;25.20;99.90
39881;DHT22;25554;44.954;10.068;2022-08-21T20:51:08;25.20;99.90
39881;DHT22;25554;44.954;10.068;2022-08-21T20:53:55;25.20;99.90
39881;DHT22;25554;44.954;10.068;2022-08-21T21:06:58;24.80;99.90
39881;DHT22;25554;44.954;10.068;2022-08-21T21:09:34;24.80;99.90
39881;DHT22;25554;44.954;10.068;2022-08-21T21:12:04;24.70;99.90
39881;DHT22;25554;44.954;10.068;2022-08-21T21:14:37;24.60;99.90
39881;DHT22;25554;44.954;10.068;2022-08-21T21:17:06;24.60;99.90
39881;DHT22;25554;44.954;10.068;2022-08-21T21:20:18;24.10;99.90
39881;DHT22;25554;44.954;10.068;2022-08-21T21:22:39;24.40;99.90
39881;DHT22;25554;44.954;10.068;2022-08-21T21:25:17;24.30;99.90
39881;DHT22;25554;44.954;10.068;2022-08-21T21:35:06;24.10;99.90
39881;DHT22;25554;44.954;10.068;2022-08-21T21:37:42;24.10;99.90
39881;DHT22;25554;44.954;10.068;2022-08-21T21:48:23;23.90;99.90
39881;DHT22;25554;44.954;10.068;2022-08-21T21:51:01;23.90;99.90
39881;DHT22;25554;44.954;10.068;2022-08-21T21:59:19;23.80;99.90
39881;DHT22;25554;44.954;10.068;2022-08-21T22:02:00;23.80;99.90
39881;DHT22;25554;44.954;10.068;2022-08-21T22:04:54;24.80;99.90
39881;DHT22;25554;44.954;10.068;2022-08-21T22:07:50;23.90;99.90
39881;DHT22;25554;44.954;10.068;2022-08-21T22:13:02;23.60;99.90
39881;DHT22;25554;44.954;10.068;2022-08-21T22:18:08;23.60;99.90
39881;DHT22;25554;44.954;10.068;2022-08-21T22:20:55;23.60;99.90
39881;DHT22;25554;44.954;10.068;2022-08-21T22:23:31;23.50;99.90
39881;DHT22;25554;44.954;10.068;2022-08-21T22:26:12;23.50;99.90
39881;DHT22;25554;44.954;10.068;2022-08-21T22:28:41;23.50;99.90
39881;DHT22;25554;44.954;10.068;2022-08-21T22:34:06;23.30;99.90
39881;DHT22;25554;44.954;10.068;2022-08-21T22:36:39;23.00;99.90
39881;DHT22;25554;44.954;10.068;2022-08-21T22:39:16;22.80;99.90
39881;DHT22;25554;44.954;10.068;2022-08-21T22:41:45;22.70;99.90
39881;DHT22;25554;44.954;10.068;2022-08-21T22:44:24;20.10;99.90
39881;DHT22;25554;44.954;10.068;2022-08-21T22:47:00;22.80;99.90
39881;DHT22;25554;44.954;10.068;2022-08-21T22:52:07;22.80;99.90
39881;DHT22;25554;44.954;10.068;2022-08-21T22:54:40;22.80;99.90
39881;DHT22;25554;44.954;10.068;2022-08-21T22:57:32;22.80;99.90
39881;DHT22;25554;44.954;10.068;2022-08-21T23:00:14;22.80;99.90
39881;DHT22;25554;44.954;10.068;2022-08-21T23:07:47;22.70;99.90
39881;DHT22;25554;44.954;10.068;2022-08-21T23:10:25;22.70;99.90
39881;DHT22;25554;44.954;10.068;2022-08-21T23:13:01;22.60;99.90
39881;DHT22;25554;44.954;10.068;2022-08-21T23:21:35;22.50;99.90
39881;DHT22;25554;44.954;10.068;2022-08-21T23:24:08;22.50;99.90
39881;DHT22;25554;44.954;10.068;2022-08-21T23:34:30;22.70;99.90
39881;DHT22;25554;44.954;10.068;2022-08-21T23:37:30;22.40;99.90
39881;DHT22;25554;44.954;10.068;2022-08-21T23:48:34;22.30;99.90
39881;DHT22;25554;44.954;10.068;2022-08-21T23:55:03;22.40;99.90
39881;DHT22;25554;44.954;10.068;2022-08-21T23:57:29;22.40;99.90
